createdAt,value
2023-04-07T00:05:20.041Z,-0.39
2023-04-07T00:10:41.683Z,-0.43
2023-04-07T00:16:03.988Z,-0.45
2023-04-07T00:21:27.761Z,-0.56
2023-04-07T00:26:50.116Z,-0.60
2023-04-07T00:32:12.111Z,-0.53
2023-04-07T00:37:34.923Z,-0.63
2023-04-07T00:42:57.350Z,-0.66
2023-04-07T00:48:19.984Z,-0.85
2023-04-07T00:53:42.933Z,-0.65
2023-04-07T00:59:06.386Z,-0.76
2023-04-07T01:05:03.026Z,-0.82
2023-04-07T01:10:34.732Z,-0.80
2023-04-07T01:16:06.492Z,-0.91
2023-04-07T01:21:38.050Z,-1.01
2023-04-07T01:27:14.108Z,-1.00
2023-04-07T01:32:38.538Z,-0.93
2023-04-07T01:38:01.984Z,-0.98
2023-04-07T01:43:26.887Z,-1.04
2023-04-07T01:48:50.059Z,-1.06
2023-04-07T01:54:12.824Z,-1.18
2023-04-07T01:59:35.285Z,-1.07
2023-04-07T02:05:07.292Z,-1.16
2023-04-07T02:10:37.183Z,-1.10
2023-04-07T02:15:59.825Z,-1.19
2023-04-07T02:21:23.404Z,-1.20
2023-04-07T02:26:45.549Z,-1.21
2023-04-07T02:32:07.627Z,-1.40
2023-04-07T02:37:30.173Z,-1.56
2023-04-07T02:42:53.295Z,-1.47
2023-04-07T02:48:19.819Z,-1.53
2023-04-07T02:53:42.650Z,-1.32
2023-04-07T02:59:08.660Z,-1.50
2023-04-07T03:04:37.444Z,-1.51
2023-04-07T03:10:00.757Z,-1.39
2023-04-07T03:15:30.398Z,-1.30
2023-04-07T03:21:09.501Z,-1.29
2023-04-07T03:26:35.694Z,-1.12
2023-04-07T03:32:05.793Z,-0.97
2023-04-07T03:37:28.104Z,-0.92
2023-04-07T03:42:51.145Z,-0.81
2023-04-07T03:48:13.292Z,-0.69
2023-04-07T03:53:47.782Z,-0.58
2023-04-07T05:51:34.794Z,6.29
2023-04-07T05:57:03.084Z,6.57
2023-04-07T06:02:27.836Z,6.63
2023-04-07T06:07:51.834Z,7.01
2023-04-07T06:13:14.105Z,7.42
2023-04-07T06:18:37.701Z,7.55
2023-04-07T06:24:01.896Z,7.53
2023-04-07T06:29:27.120Z,7.85
2023-04-07T06:34:51.231Z,8.21
2023-04-07T06:40:13.096Z,8.53
2023-04-07T06:45:35.150Z,8.20
2023-04-07T06:50:56.977Z,7.94
2023-04-07T06:56:19.595Z,8.53
2023-04-07T07:01:42.771Z,8.92
2023-04-07T07:07:04.962Z,8.90
2023-04-07T07:12:26.983Z,8.89
2023-04-07T07:17:48.603Z,9.08
2023-04-07T07:23:10.970Z,9.46
2023-04-07T07:28:32.782Z,9.64
2023-04-07T07:33:56.749Z,9.54
2023-04-07T07:39:19.187Z,9.58
2023-04-07T07:44:41.753Z,9.27
2023-04-07T07:50:06.296Z,9.45
2023-04-07T07:55:28.492Z,9.67
2023-04-07T08:00:51.310Z,9.59
2023-04-07T08:06:13.697Z,9.70
2023-04-07T08:11:35.793Z,9.53
2023-04-07T08:16:58.460Z,9.71
2023-04-07T08:22:21.864Z,9.76
2023-04-07T08:27:46.840Z,9.56
2023-04-07T08:33:11.829Z,9.38
2023-04-07T08:38:34.121Z,9.26
2023-04-07T08:43:58.663Z,9.67
2023-04-07T08:49:22.331Z,9.71
2023-04-07T08:54:44.925Z,9.53
2023-04-07T09:00:09.825Z,9.58
2023-04-07T09:05:33.512Z,9.43
2023-04-07T09:10:57.595Z,9.27
2023-04-07T09:16:20.131Z,9.17
2023-04-07T09:21:53.036Z,9.43
2023-04-07T09:27:21.711Z,9.68
2023-04-07T09:32:44.129Z,9.57
2023-04-07T09:38:08.430Z,9.48
2023-04-07T09:43:30.508Z,9.26
2023-04-07T09:49:07.918Z,9.34
2023-04-07T09:54:36.673Z,9.32
2023-04-07T10:00:00.052Z,9.25
2023-04-07T10:05:23.253Z,9.29
2023-04-07T10:10:46.642Z,9.22
2023-04-07T10:16:08.970Z,9.18
2023-04-07T10:21:33.023Z,9.27
2023-04-07T10:26:58.531Z,9.34
2023-04-07T10:32:31.167Z,9.11
2023-04-07T10:38:12.710Z,9.34
2023-04-07T10:43:42.452Z,9.35
2023-04-07T10:49:10.893Z,9.22
2023-04-07T10:54:34.855Z,9.27
2023-04-07T11:00:12.179Z,9.54
2023-04-07T11:05:34.138Z,9.28
2023-04-07T11:10:56.498Z,9.31
2023-04-07T11:16:20.441Z,9.59
2023-04-07T11:21:45.601Z,9.48
2023-04-07T11:27:13.475Z,9.41
2023-04-07T11:32:35.761Z,9.26
2023-04-07T11:38:02.313Z,9.39
2023-04-07T11:43:27.666Z,9.32
2023-04-07T11:48:49.843Z,9.53
2023-04-07T11:54:12.382Z,9.56
2023-04-07T11:59:34.309Z,9.50
2023-04-07T12:04:57.927Z,9.44
2023-04-07T12:10:26.261Z,9.51
2023-04-07T12:15:48.766Z,9.61
2023-04-07T12:21:10.402Z,9.53
2023-04-07T12:26:32.470Z,9.48
2023-04-07T12:31:54.361Z,9.43
2023-04-07T12:37:16.811Z,9.52
2023-04-07T12:42:38.452Z,9.33
2023-04-07T12:48:01.142Z,9.51
2023-04-07T12:53:23.463Z,9.45
2023-04-07T12:58:45.237Z,9.41
2023-04-07T13:04:08.103Z,9.41
2023-04-07T13:09:29.867Z,9.44
2023-04-07T13:14:59.755Z,9.28
2023-04-07T13:20:23.249Z,9.02
2023-04-07T13:25:44.817Z,9.21
2023-04-07T13:31:07.052Z,9.32
2023-04-07T13:36:29.575Z,9.08
2023-04-07T13:41:51.376Z,8.94
2023-04-07T13:47:15.410Z,9.04
2023-04-07T13:52:38.012Z,9.01
2023-04-07T13:57:59.884Z,8.95
2023-04-07T14:03:22.060Z,9.00
2023-04-07T14:08:44.384Z,8.98
2023-04-07T14:14:07.198Z,8.96
2023-04-07T14:19:29.332Z,8.89
2023-04-07T14:24:51.262Z,8.77
2023-04-07T14:30:13.593Z,8.72
2023-04-07T14:35:38.192Z,8.66
2023-04-07T14:41:09.803Z,8.60
2023-04-07T14:46:35.017Z,8.47
2023-04-07T14:51:57.849Z,8.09
2023-04-07T14:57:20.363Z,8.20
2023-04-07T15:02:43.119Z,7.90
2023-04-07T15:08:06.538Z,7.67
2023-04-07T15:19:34.377Z,7.47
2023-04-07T15:24:56.574Z,7.24
2023-04-07T15:30:18.411Z,6.95
2023-04-07T15:35:44.510Z,6.79
2023-04-07T15:41:07.283Z,6.49
2023-04-07T15:46:29.419Z,6.33
2023-04-07T15:51:51.772Z,6.09
2023-04-07T15:57:13.675Z,5.78
2023-04-07T16:02:36.609Z,5.48
2023-04-07T16:07:58.655Z,5.29
2023-04-07T16:13:20.539Z,4.94
2023-04-07T16:18:42.469Z,4.75
2023-04-07T16:24:04.554Z,4.45
2023-04-07T16:29:26.605Z,4.29
2023-04-07T16:34:49.790Z,4.11
2023-04-07T16:40:12.252Z,3.89
2023-04-07T16:45:34.812Z,3.74
2023-04-07T16:50:56.621Z,3.52
2023-04-07T16:56:23.868Z,3.25
2023-04-07T17:01:46.591Z,3.22
2023-04-07T17:07:09.957Z,3.05
2023-04-07T17:12:31.821Z,2.70
2023-04-07T17:17:53.946Z,2.61
2023-04-07T17:23:15.842Z,2.59
2023-04-07T17:28:37.761Z,2.50
2023-04-07T17:33:59.995Z,2.39
2023-04-07T17:39:22.400Z,2.22
2023-04-07T17:44:46.373Z,2.14
2023-04-07T17:50:09.672Z,1.93
2023-04-07T17:55:31.488Z,1.88
2023-04-07T18:00:53.888Z,1.77
2023-04-07T18:06:19.352Z,1.70
2023-04-07T18:11:44.893Z,1.57
2023-04-07T18:17:06.968Z,1.42
2023-04-07T18:22:29.107Z,1.42
2023-04-07T18:27:51.453Z,1.32
2023-04-07T18:33:16.412Z,1.20
2023-04-07T18:38:39.211Z,1.03
2023-04-07T18:44:04.840Z,1.13
2023-04-07T18:49:28.505Z,0.92
2023-04-07T18:54:53.926Z,0.85
2023-04-07T19:00:16.934Z,0.72
2023-04-07T19:05:42.781Z,0.70
2023-04-07T19:11:09.683Z,0.63
2023-04-07T19:16:43.588Z,0.47
2023-04-07T19:22:13.366Z,0.48
2023-04-07T19:27:36.850Z,0.59
2023-04-07T19:33:05.919Z,0.39
2023-04-07T19:38:28.870Z,0.38
2023-04-07T19:43:52.244Z,0.31
2023-04-07T19:49:15.135Z,0.28
2023-04-07T19:54:38.093Z,0.17
2023-04-07T20:00:03.161Z,0.26
2023-04-07T20:05:56.805Z,0.53
2023-04-07T20:11:24.785Z,0.46
2023-04-07T20:16:50.751Z,0.18
2023-04-07T20:22:14.685Z,0.40
2023-04-07T20:27:37.542Z,0.12
2023-04-07T20:33:00.559Z,0.29
2023-04-07T20:38:22.820Z,0.29
2023-04-07T20:43:45.042Z,0.10
2023-04-07T20:49:08.592Z,0.02
2023-04-07T20:54:30.920Z,-0.06
2023-04-07T20:59:53.279Z,-0.28
2023-04-07T21:05:19.925Z,-0.26
2023-04-07T21:10:43.464Z,-0.24
2023-04-07T21:16:06.311Z,-0.25
2023-04-07T21:21:29.315Z,-0.19
2023-04-07T21:26:55.005Z,-0.34
2023-04-07T21:32:17.816Z,-0.30
2023-04-07T21:37:40.465Z,-0.28
2023-04-07T21:43:02.843Z,-0.18
2023-04-07T21:48:28.040Z,-0.40
2023-04-07T21:53:50.631Z,-0.42
2023-04-07T21:59:14.051Z,-0.30
2023-04-07T22:04:36.728Z,-0.32
2023-04-07T22:10:00.545Z,-0.52
2023-04-07T22:15:23.076Z,-0.48
2023-04-07T22:20:45.879Z,-0.64
2023-04-07T22:26:09.030Z,-0.62
2023-04-07T22:31:31.495Z,-0.54
2023-04-07T22:36:53.989Z,-0.48
2023-04-07T22:42:15.983Z,-0.55
2023-04-07T22:47:39.687Z,-0.54
2023-04-07T22:53:01.981Z,-0.61
2023-04-07T22:58:23.879Z,-0.61
2023-04-07T23:03:46.220Z,-0.73
2023-04-07T23:09:08.339Z,-0.63
2023-04-07T23:14:30.375Z,-0.73
2023-04-07T23:19:52.357Z,-0.69
2023-04-07T23:25:14.474Z,-0.82
2023-04-07T23:30:38.082Z,-0.81
2023-04-07T23:36:00.427Z,-0.92
2023-04-07T23:41:23.684Z,-0.87
2023-04-07T23:46:45.594Z,-0.99
2023-04-07T23:52:08.190Z,-1.03
2023-04-07T23:57:30.521Z,-0.99
